sensor_id;sensor_type;location;lat;lon;timestamp;P1;durP1;ratioP1;P2;durP2;ratioP2
20982;SDS011;10650;51.528;6.748;2023-06-26T00:01:19;9.05;;;8.15;;
20982;SDS011;10650;51.528;6.748;2023-06-26T00:03:48;8.95;;;8.13;;
20982;SDS011;10650;51.528;6.748;2023-06-26T00:06:16;8.95;;;7.63;;
20982;SDS011;10650;51.528;6.748;2023-06-26T00:08:44;9.15;;;8.00;;
20982;SDS011;10650;51.528;6.748;2023-06-26T00:11:11;9.18;;;8.35;;
20982;SDS011;10650;51.528;6.748;2023-06-26T00:13:39;8.45;;;7.63;;
20982;SDS011;10650;51.528;6.748;2023-06-26T00:16:09;8.85;;;7.95;;
20982;SDS011;10650;51.528;6.748;2023-06-26T00:18:37;9.25;;;8.30;;
20982;SDS011;10650;51.528;6.748;2023-06-26T00:21:05;8.55;;;7.85;;
20982;SDS011;10650;51.528;6.748;2023-06-26T00:23:32;9.25;;;8.35;;
20982;SDS011;10650;51.528;6.748;2023-06-26T00:26:05;9.00;;;8.02;;
20982;SDS011;10650;51.528;6.748;2023-06-26T00:28:33;9.63;;;8.60;;
20982;SDS011;10650;51.528;6.748;2023-06-26T00:31:01;9.10;;;8.23;;
20982;SDS011;10650;51.528;6.748;2023-06-26T00:33:30;9.15;;;7.82;;
20982;SDS011;10650;51.528;6.748;2023-06-26T00:35:58;9.57;;;8.63;;
20982;SDS011;10650;51.528;6.748;2023-06-26T00:38:26;8.73;;;7.90;;
20982;SDS011;10650;51.528;6.748;2023-06-26T00:40:54;9.23;;;8.32;;
20982;SDS011;10650;51.528;6.748;2023-06-26T00:43:22;9.55;;;8.57;;
20982;SDS011;10650;51.528;6.748;2023-06-26T00:45:50;9.02;;;8.13;;
20982;SDS011;10650;51.528;6.748;2023-06-26T00:48:17;9.93;;;8.85;;
20982;SDS011;10650;51.528;6.748;2023-06-26T00:50:47;9.77;;;8.88;;
20982;SDS011;10650;51.528;6.748;2023-06-26T00:53:15;9.65;;;8.65;;
20982;SDS011;10650;51.528;6.748;2023-06-26T00:55:43;9.40;;;8.50;;
20982;SDS011;10650;51.528;6.748;2023-06-26T00:58:10;12.05;;;9.55;;
20982;SDS011;10650;51.528;6.748;2023-06-26T01:00:38;10.57;;;9.50;;
20982;SDS011;10650;51.528;6.748;2023-06-26T01:03:07;11.95;;;9.90;;
20982;SDS011;10650;51.528;6.748;2023-06-26T01:05:34;11.05;;;9.90;;
20982;SDS011;10650;51.528;6.748;2023-06-26T01:08:04;14.43;;;13.00;;
20982;SDS011;10650;51.528;6.748;2023-06-26T01:10:32;14.55;;;12.38;;
20982;SDS011;10650;51.528;6.748;2023-06-26T01:13:00;12.57;;;10.30;;
20982;SDS011;10650;51.528;6.748;2023-06-26T01:15:27;12.40;;;9.85;;
20982;SDS011;10650;51.528;6.748;2023-06-26T01:17:55;11.27;;;9.57;;
20982;SDS011;10650;51.528;6.748;2023-06-26T01:20:30;11.75;;;10.40;;
20982;SDS011;10650;51.528;6.748;2023-06-26T01:23:01;10.95;;;9.80;;
20982;SDS011;10650;51.528;6.748;2023-06-26T01:25:40;11.13;;;9.82;;
20982;SDS011;10650;51.528;6.748;2023-06-26T01:28:16;10.93;;;9.75;;
20982;SDS011;10650;51.528;6.748;2023-06-26T01:30:47;10.25;;;9.25;;
20982;SDS011;10650;51.528;6.748;2023-06-26T01:33:15;10.95;;;9.55;;
20982;SDS011;10650;51.528;6.748;2023-06-26T01:35:43;11.07;;;9.30;;
20982;SDS011;10650;51.528;6.748;2023-06-26T01:38:12;10.70;;;9.30;;
20982;SDS011;10650;51.528;6.748;2023-06-26T01:40:40;10.52;;;8.85;;
20982;SDS011;10650;51.528;6.748;2023-06-26T01:43:10;10.35;;;9.00;;
20982;SDS011;10650;51.528;6.748;2023-06-26T01:45:48;9.73;;;8.73;;
20982;SDS011;10650;51.528;6.748;2023-06-26T01:48:19;11.55;;;9.93;;
20982;SDS011;10650;51.528;6.748;2023-06-26T01:50:51;9.68;;;8.73;;
20982;SDS011;10650;51.528;6.748;2023-06-26T01:53:21;9.77;;;8.45;;
20982;SDS011;10650;51.528;6.748;2023-06-26T01:55:53;9.30;;;8.50;;
20982;SDS011;10650;51.528;6.748;2023-06-26T01:58:28;9.93;;;8.93;;
20982;SDS011;10650;51.528;6.748;2023-06-26T02:00:57;9.77;;;8.73;;
20982;SDS011;10650;51.528;6.748;2023-06-26T02:03:25;11.18;;;8.88;;
20982;SDS011;10650;51.528;6.748;2023-06-26T02:05:52;9.77;;;8.77;;
20982;SDS011;10650;51.528;6.748;2023-06-26T02:08:20;10.25;;;9.13;;
20982;SDS011;10650;51.528;6.748;2023-06-26T02:10:49;13.20;;;11.90;;
20982;SDS011;10650;51.528;6.748;2023-06-26T02:13:16;10.55;;;9.45;;
20982;SDS011;10650;51.528;6.748;2023-06-26T02:15:45;11.10;;;10.00;;
20982;SDS011;10650;51.528;6.748;2023-06-26T02:18:13;11.32;;;10.13;;
20982;SDS011;10650;51.528;6.748;2023-06-26T02:20:41;10.63;;;9.25;;
20982;SDS011;10650;51.528;6.748;2023-06-26T02:23:10;10.40;;;9.40;;
20982;SDS011;10650;51.528;6.748;2023-06-26T02:25:38;10.45;;;9.30;;
20982;SDS011;10650;51.528;6.748;2023-06-26T02:28:06;9.55;;;8.65;;
20982;SDS011;10650;51.528;6.748;2023-06-26T02:30:34;13.80;;;10.15;;
20982;SDS011;10650;51.528;6.748;2023-06-26T02:33:04;16.20;;;10.98;;
20982;SDS011;10650;51.528;6.748;2023-06-26T02:35:32;13.75;;;11.10;;
20982;SDS011;10650;51.528;6.748;2023-06-26T02:38:00;14.15;;;10.18;;
20982;SDS011;10650;51.528;6.748;2023-06-26T02:40:27;16.55;;;10.13;;
20982;SDS011;10650;51.528;6.748;2023-06-26T02:42:55;13.00;;;9.88;;
20982;SDS011;10650;51.528;6.748;2023-06-26T02:45:23;13.43;;;10.80;;
20982;SDS011;10650;51.528;6.748;2023-06-26T02:47:51;12.98;;;10.60;;
20982;SDS011;10650;51.528;6.748;2023-06-26T02:50:20;13.15;;;10.07;;
20982;SDS011;10650;51.528;6.748;2023-06-26T02:52:48;15.35;;;10.63;;
20982;SDS011;10650;51.528;6.748;2023-06-26T02:55:18;13.02;;;10.10;;
20982;SDS011;10650;51.528;6.748;2023-06-26T02:57:48;16.13;;;10.18;;
20982;SDS011;10650;51.528;6.748;2023-06-26T03:00:16;9.70;;;8.73;;
20982;SDS011;10650;51.528;6.748;2023-06-26T03:02:44;9.88;;;8.88;;
20982;SDS011;10650;51.528;6.748;2023-06-26T03:05:12;9.63;;;8.63;;
20982;SDS011;10650;51.528;6.748;2023-06-26T03:07:41;10.65;;;8.75;;
20982;SDS011;10650;51.528;6.748;2023-06-26T03:10:09;10.90;;;8.38;;
20982;SDS011;10650;51.528;6.748;2023-06-26T03:12:37;10.60;;;9.55;;
20982;SDS011;10650;51.528;6.748;2023-06-26T03:15:05;11.15;;;9.20;;
20982;SDS011;10650;51.528;6.748;2023-06-26T03:17:33;9.82;;;8.43;;
20982;SDS011;10650;51.528;6.748;2023-06-26T03:20:01;10.15;;;9.20;;
20982;SDS011;10650;51.528;6.748;2023-06-26T03:22:32;9.30;;;8.48;;
20982;SDS011;10650;51.528;6.748;2023-06-26T03:25:01;10.40;;;9.45;;
20982;SDS011;10650;51.528;6.748;2023-06-26T03:27:29;10.57;;;9.57;;
20982;SDS011;10650;51.528;6.748;2023-06-26T03:29:57;11.15;;;9.73;;
20982;SDS011;10650;51.528;6.748;2023-06-26T03:32:24;10.40;;;9.35;;
20982;SDS011;10650;51.528;6.748;2023-06-26T03:34:52;10.25;;;9.25;;
20982;SDS011;10650;51.528;6.748;2023-06-26T03:37:20;11.35;;;9.50;;
20982;SDS011;10650;51.528;6.748;2023-06-26T03:39:47;10.35;;;9.35;;
20982;SDS011;10650;51.528;6.748;2023-06-26T03:42:17;10.20;;;9.20;;
20982;SDS011;10650;51.528;6.748;2023-06-26T03:44:44;9.98;;;8.90;;
20982;SDS011;10650;51.528;6.748;2023-06-26T03:47:12;10.27;;;8.88;;
20982;SDS011;10650;51.528;6.748;2023-06-26T03:49:40;10.30;;;9.30;;
20982;SDS011;10650;51.528;6.748;2023-06-26T03:52:07;8.82;;;8.00;;
20982;SDS011;10650;51.528;6.748;2023-06-26T03:54:35;10.15;;;9.07;;
20982;SDS011;10650;51.528;6.748;2023-06-26T03:57:03;9.00;;;8.20;;
20982;SDS011;10650;51.528;6.748;2023-06-26T03:59:33;9.57;;;8.68;;
20982;SDS011;10650;51.528;6.748;2023-06-26T04:02:00;8.23;;;7.43;;
20982;SDS011;10650;51.528;6.748;2023-06-26T04:04:29;9.40;;;8.50;;
20982;SDS011;10650;51.528;6.748;2023-06-26T04:06:57;9.45;;;8.50;;
20982;SDS011;10650;51.528;6.748;2023-06-26T04:09:25;9.60;;;8.30;;
20982;SDS011;10650;51.528;6.748;2023-06-26T04:11:53;10.10;;;7.90;;
20982;SDS011;10650;51.528;6.748;2023-06-26T04:14:21;11.07;;;8.15;;
20982;SDS011;10650;51.528;6.748;2023-06-26T04:16:50;9.00;;;7.15;;
20982;SDS011;10650;51.528;6.748;2023-06-26T04:19:18;8.43;;;7.60;;
20982;SDS011;10650;51.528;6.748;2023-06-26T04:21:46;9.52;;;7.03;;
20982;SDS011;10650;51.528;6.748;2023-06-26T04:24:14;9.15;;;6.93;;
20982;SDS011;10650;51.528;6.748;2023-06-26T04:26:42;8.43;;;7.35;;
20982;SDS011;10650;51.528;6.748;2023-06-26T04:29:11;7.93;;;6.97;;
20982;SDS011;10650;51.528;6.748;2023-06-26T04:31:39;9.63;;;6.78;;
20982;SDS011;10650;51.528;6.748;2023-06-26T04:34:08;8.60;;;7.35;;
20982;SDS011;10650;51.528;6.748;2023-06-26T04:36:36;8.30;;;7.50;;
20982;SDS011;10650;51.528;6.748;2023-06-26T04:39:05;8.95;;;8.05;;
20982;SDS011;10650;51.528;6.748;2023-06-26T04:41:33;8.70;;;7.80;;
20982;SDS011;10650;51.528;6.748;2023-06-26T04:44:01;8.80;;;7.95;;
20982;SDS011;10650;51.528;6.748;2023-06-26T04:46:28;8.98;;;8.18;;
20982;SDS011;10650;51.528;6.748;2023-06-26T04:48:56;10.35;;;8.10;;
20982;SDS011;10650;51.528;6.748;2023-06-26T04:51:26;9.55;;;8.18;;
20982;SDS011;10650;51.528;6.748;2023-06-26T04:53:55;7.80;;;7.10;;
20982;SDS011;10650;51.528;6.748;2023-06-26T04:56:22;7.63;;;6.50;;
20982;SDS011;10650;51.528;6.748;2023-06-26T04:58:50;8.30;;;7.00;;
20982;SDS011;10650;51.528;6.748;2023-06-26T05:01:18;9.00;;;6.70;;
20982;SDS011;10650;51.528;6.748;2023-06-26T05:03:45;7.07;;;6.38;;
20982;SDS011;10650;51.528;6.748;2023-06-26T05:06:14;8.38;;;7.03;;
20982;SDS011;10650;51.528;6.748;2023-06-26T05:08:43;8.73;;;6.50;;
20982;SDS011;10650;51.528;6.748;2023-06-26T05:11:11;8.10;;;6.72;;
20982;SDS011;10650;51.528;6.748;2023-06-26T05:13:39;7.40;;;6.55;;
20982;SDS011;10650;51.528;6.748;2023-06-26T05:16:07;7.82;;;6.55;;
20982;SDS011;10650;51.528;6.748;2023-06-26T05:18:36;8.75;;;7.03;;
20982;SDS011;10650;51.528;6.748;2023-06-26T05:21:04;7.57;;;6.18;;
20982;SDS011;10650;51.528;6.748;2023-06-26T05:23:32;8.73;;;7.07;;
20982;SDS011;10650;51.528;6.748;2023-06-26T05:26:03;8.75;;;6.30;;
20982;SDS011;10650;51.528;6.748;2023-06-26T05:28:31;9.60;;;6.57;;
20982;SDS011;10650;51.528;6.748;2023-06-26T05:30:59;8.55;;;6.30;;
20982;SDS011;10650;51.528;6.748;2023-06-26T05:33:28;8.73;;;5.65;;
20982;SDS011;10650;51.528;6.748;2023-06-26T05:35:56;7.63;;;6.18;;
20982;SDS011;10650;51.528;6.748;2023-06-26T05:38:25;8.20;;;5.90;;
20982;SDS011;10650;51.528;6.748;2023-06-26T05:40:54;7.90;;;6.07;;
20982;SDS011;10650;51.528;6.748;2023-06-26T05:43:24;8.68;;;5.85;;
20982;SDS011;10650;51.528;6.748;2023-06-26T05:45:55;9.68;;;6.70;;
20982;SDS011;10650;51.528;6.748;2023-06-26T05:48:23;8.25;;;6.97;;
20982;SDS011;10650;51.528;6.748;2023-06-26T05:50:52;11.27;;;6.88;;
20982;SDS011;10650;51.528;6.748;2023-06-26T05:53:20;9.95;;;6.93;;
20982;SDS011;10650;51.528;6.748;2023-06-26T05:55:48;13.40;;;7.47;;
20982;SDS011;10650;51.528;6.748;2023-06-26T05:58:16;9.40;;;7.15;;
20982;SDS011;10650;51.528;6.748;2023-06-26T06:00:49;10.00;;;6.63;;
20982;SDS011;10650;51.528;6.748;2023-06-26T06:03:16;10.95;;;6.32;;
20982;SDS011;10650;51.528;6.748;2023-06-26T06:05:44;9.85;;;6.45;;
20982;SDS011;10650;51.528;6.748;2023-06-26T06:08:12;10.18;;;6.70;;
20982;SDS011;10650;51.528;6.748;2023-06-26T06:10:40;11.50;;;7.10;;
20982;SDS011;10650;51.528;6.748;2023-06-26T06:13:08;10.48;;;6.72;;
20982;SDS011;10650;51.528;6.748;2023-06-26T06:15:36;10.60;;;6.80;;
20982;SDS011;10650;51.528;6.748;2023-06-26T06:18:05;10.55;;;6.78;;
20982;SDS011;10650;51.528;6.748;2023-06-26T06:20:33;12.35;;;6.93;;
20982;SDS011;10650;51.528;6.748;2023-06-26T06:23:01;10.80;;;7.18;;
20982;SDS011;10650;51.528;6.748;2023-06-26T06:25:29;11.18;;;7.50;;
20982;SDS011;10650;51.528;6.748;2023-06-26T06:27:56;12.52;;;7.47;;
20982;SDS011;10650;51.528;6.748;2023-06-26T06:30:24;9.48;;;7.40;;
20982;SDS011;10650;51.528;6.748;2023-06-26T06:33:11;10.15;;;7.22;;
20982;SDS011;10650;51.528;6.748;2023-06-26T06:35:38;14.02;;;7.38;;
20982;SDS011;10650;51.528;6.748;2023-06-26T06:38:06;13.13;;;7.30;;
20982;SDS011;10650;51.528;6.748;2023-06-26T06:40:34;11.18;;;7.00;;
20982;SDS011;10650;51.528;6.748;2023-06-26T06:43:02;10.75;;;7.53;;
20982;SDS011;10650;51.528;6.748;2023-06-26T06:45:30;10.93;;;6.80;;
20982;SDS011;10650;51.528;6.748;2023-06-26T06:47:58;13.13;;;7.07;;
20982;SDS011;10650;51.528;6.748;2023-06-26T06:50:27;12.60;;;7.57;;
20982;SDS011;10650;51.528;6.748;2023-06-26T06:52:55;11.00;;;6.82;;
20982;SDS011;10650;51.528;6.748;2023-06-26T06:55:23;13.02;;;7.97;;
20982;SDS011;10650;51.528;6.748;2023-06-26T06:57:52;12.40;;;8.00;;
20982;SDS011;10650;51.528;6.748;2023-06-26T07:00:19;17.42;;;8.68;;
20982;SDS011;10650;51.528;6.748;2023-06-26T07:02:47;12.15;;;7.00;;
20982;SDS011;10650;51.528;6.748;2023-06-26T07:05:15;9.02;;;6.32;;
20982;SDS011;10650;51.528;6.748;2023-06-26T07:07:45;13.75;;;7.35;;
20982;SDS011;10650;51.528;6.748;2023-06-26T07:10:13;14.65;;;8.07;;
20982;SDS011;10650;51.528;6.748;2023-06-26T07:12:41;12.10;;;7.32;;
20982;SDS011;10650;51.528;6.748;2023-06-26T07:15:10;13.55;;;7.70;;
20982;SDS011;10650;51.528;6.748;2023-06-26T07:17:38;12.95;;;7.28;;
20982;SDS011;10650;51.528;6.748;2023-06-26T07:20:06;16.83;;;8.13;;
20982;SDS011;10650;51.528;6.748;2023-06-26T07:22:35;12.30;;;7.32;;
20982;SDS011;10650;51.528;6.748;2023-06-26T07:25:05;11.35;;;7.10;;
20982;SDS011;10650;51.528;6.748;2023-06-26T07:27:35;12.90;;;8.15;;
20982;SDS011;10650;51.528;6.748;2023-06-26T07:30:03;12.15;;;8.07;;
20982;SDS011;10650;51.528;6.748;2023-06-26T07:32:32;14.85;;;7.68;;
20982;SDS011;10650;51.528;6.748;2023-06-26T07:35:00;12.63;;;7.50;;
20982;SDS011;10650;51.528;6.748;2023-06-26T07:37:28;12.23;;;7.47;;
20982;SDS011;10650;51.528;6.748;2023-06-26T07:39:55;12.68;;;7.10;;
20982;SDS011;10650;51.528;6.748;2023-06-26T07:42:24;14.30;;;6.78;;
20982;SDS011;10650;51.528;6.748;2023-06-26T07:44:52;12.35;;;7.03;;
20982;SDS011;10650;51.528;6.748;2023-06-26T07:47:20;12.88;;;6.68;;
20982;SDS011;10650;51.528;6.748;2023-06-26T07:49:48;12.13;;;6.25;;
20982;SDS011;10650;51.528;6.748;2023-06-26T07:52:16;11.95;;;6.88;;
20982;SDS011;10650;51.528;6.748;2023-06-26T07:54:45;11.27;;;6.40;;
20982;SDS011;10650;51.528;6.748;2023-06-26T07:57:13;14.35;;;7.20;;
20982;SDS011;10650;51.528;6.748;2023-06-26T07:59:42;13.85;;;7.28;;
20982;SDS011;10650;51.528;6.748;2023-06-26T08:02:10;12.38;;;6.68;;
20982;SDS011;10650;51.528;6.748;2023-06-26T08:04:37;7.82;;;5.63;;
20982;SDS011;10650;51.528;6.748;2023-06-26T08:07:05;14.30;;;6.10;;
20982;SDS011;10650;51.528;6.748;2023-06-26T08:09:33;12.50;;;6.70;;
20982;SDS011;10650;51.528;6.748;2023-06-26T08:12:01;12.02;;;6.10;;
20982;SDS011;10650;51.528;6.748;2023-06-26T08:14:29;10.50;;;6.25;;
20982;SDS011;10650;51.528;6.748;2023-06-26T08:16:59;11.85;;;5.82;;
20982;SDS011;10650;51.528;6.748;2023-06-26T08:19:26;10.95;;;5.90;;
20982;SDS011;10650;51.528;6.748;2023-06-26T08:21:54;12.60;;;6.15;;
20982;SDS011;10650;51.528;6.748;2023-06-26T08:24:22;9.27;;;5.47;;
20982;SDS011;10650;51.528;6.748;2023-06-26T08:26:52;12.02;;;6.25;;
20982;SDS011;10650;51.528;6.748;2023-06-26T08:29:19;10.38;;;5.60;;
20982;SDS011;10650;51.528;6.748;2023-06-26T08:31:47;11.63;;;6.20;;
20982;SDS011;10650;51.528;6.748;2023-06-26T08:34:16;14.35;;;6.43;;
20982;SDS011;10650;51.528;6.748;2023-06-26T08:36:44;11.57;;;6.65;;
20982;SDS011;10650;51.528;6.748;2023-06-26T08:39:12;11.45;;;6.13;;
20982;SDS011;10650;51.528;6.748;2023-06-26T08:41:40;10.15;;;6.00;;
20982;SDS011;10650;51.528;6.748;2023-06-26T08:44:08;11.68;;;6.22;;
20982;SDS011;10650;51.528;6.748;2023-06-26T08:46:37;11.73;;;5.60;;
20982;SDS011;10650;51.528;6.748;2023-06-26T08:49:08;11.20;;;6.25;;
20982;SDS011;10650;51.528;6.748;2023-06-26T08:51:43;12.18;;;6.07;;
20982;SDS011;10650;51.528;6.748;2023-06-26T08:54:20;11.80;;;5.90;;
20982;SDS011;10650;51.528;6.748;2023-06-26T08:56:55;19.92;;;10.23;;
20982;SDS011;10650;51.528;6.748;2023-06-26T08:59:24;15.73;;;6.35;;
20982;SDS011;10650;51.528;6.748;2023-06-26T09:01:52;10.00;;;5.53;;
20982;SDS011;10650;51.528;6.748;2023-06-26T09:04:21;10.75;;;5.60;;
20982;SDS011;10650;51.528;6.748;2023-06-26T09:06:50;8.93;;;5.22;;
20982;SDS011;10650;51.528;6.748;2023-06-26T09:09:18;10.35;;;5.25;;
20982;SDS011;10650;51.528;6.748;2023-06-26T09:11:46;13.98;;;5.70;;
20982;SDS011;10650;51.528;6.748;2023-06-26T09:14:14;16.05;;;7.45;;
20982;SDS011;10650;51.528;6.748;2023-06-26T09:16:42;10.40;;;5.55;;
20982;SDS011;10650;51.528;6.748;2023-06-26T09:19:10;8.90;;;5.30;;
20982;SDS011;10650;51.528;6.748;2023-06-26T09:21:39;9.60;;;5.07;;
20982;SDS011;10650;51.528;6.748;2023-06-26T09:24:09;7.68;;;4.93;;
20982;SDS011;10650;51.528;6.748;2023-06-26T09:26:38;9.00;;;5.30;;
20982;SDS011;10650;51.528;6.748;2023-06-26T09:29:07;9.50;;;5.32;;
20982;SDS011;10650;51.528;6.748;2023-06-26T09:31:36;11.50;;;5.50;;
20982;SDS011;10650;51.528;6.748;2023-06-26T09:34:08;10.40;;;5.30;;
20982;SDS011;10650;51.528;6.748;2023-06-26T09:36:36;9.55;;;5.05;;
20982;SDS011;10650;51.528;6.748;2023-06-26T09:39:06;10.20;;;5.28;;
20982;SDS011;10650;51.528;6.748;2023-06-26T09:41:40;7.95;;;4.93;;
20982;SDS011;10650;51.528;6.748;2023-06-26T09:44:10;8.45;;;4.50;;
20982;SDS011;10650;51.528;6.748;2023-06-26T09:46:39;8.48;;;4.38;;
20982;SDS011;10650;51.528;6.748;2023-06-26T09:49:07;8.60;;;5.00;;
20982;SDS011;10650;51.528;6.748;2023-06-26T09:51:37;9.25;;;4.82;;
20982;SDS011;10650;51.528;6.748;2023-06-26T09:54:07;7.82;;;3.97;;
20982;SDS011;10650;51.528;6.748;2023-06-26T09:56:35;7.72;;;4.28;;
20982;SDS011;10650;51.528;6.748;2023-06-26T09:59:05;5.75;;;4.30;;
20982;SDS011;10650;51.528;6.748;2023-06-26T10:01:39;8.05;;;4.47;;
20982;SDS011;10650;51.528;6.748;2023-06-26T10:04:08;7.40;;;4.15;;
20982;SDS011;10650;51.528;6.748;2023-06-26T10:06:36;8.30;;;4.70;;
20982;SDS011;10650;51.528;6.748;2023-06-26T10:09:08;8.70;;;4.63;;
20982;SDS011;10650;51.528;6.748;2023-06-26T10:11:40;6.50;;;4.38;;
20982;SDS011;10650;51.528;6.748;2023-06-26T10:14:14;7.63;;;4.15;;
20982;SDS011;10650;51.528;6.748;2023-06-26T10:16:44;6.50;;;4.20;;
20982;SDS011;10650;51.528;6.748;2023-06-26T10:19:13;7.35;;;4.47;;
20982;SDS011;10650;51.528;6.748;2023-06-26T10:24:13;8.40;;;4.47;;
20982;SDS011;10650;51.528;6.748;2023-06-26T10:26:42;7.18;;;4.32;;
20982;SDS011;10650;51.528;6.748;2023-06-26T10:29:12;7.35;;;4.45;;
20982;SDS011;10650;51.528;6.748;2023-06-26T10:31:44;8.10;;;4.15;;
20982;SDS011;10650;51.528;6.748;2023-06-26T10:34:17;6.38;;;3.83;;
20982;SDS011;10650;51.528;6.748;2023-06-26T10:36:45;7.43;;;5.35;;
20982;SDS011;10650;51.528;6.748;2023-06-26T10:39:14;10.68;;;6.38;;
20982;SDS011;10650;51.528;6.748;2023-06-26T10:41:43;9.20;;;3.80;;
20982;SDS011;10650;51.528;6.748;2023-06-26T10:44:31;6.40;;;3.80;;
20982;SDS011;10650;51.528;6.748;2023-06-26T10:47:08;6.72;;;3.10;;
20982;SDS011;10650;51.528;6.748;2023-06-26T10:49:37;6.43;;;3.10;;
20982;SDS011;10650;51.528;6.748;2023-06-26T10:52:06;4.25;;;2.90;;
20982;SDS011;10650;51.528;6.748;2023-06-26T10:54:34;3.53;;;2.55;;
20982;SDS011;10650;51.528;6.748;2023-06-26T10:57:05;3.97;;;2.40;;
20982;SDS011;10650;51.528;6.748;2023-06-26T10:59:38;4.70;;;2.58;;
20982;SDS011;10650;51.528;6.748;2023-06-26T11:02:07;6.10;;;2.42;;
20982;SDS011;10650;51.528;6.748;2023-06-26T11:04:37;5.50;;;2.33;;
20982;SDS011;10650;51.528;6.748;2023-06-26T11:07:19;4.50;;;2.40;;
20982;SDS011;10650;51.528;6.748;2023-06-26T11:09:55;4.30;;;2.23;;
20982;SDS011;10650;51.528;6.748;2023-06-26T11:15:09;6.68;;;2.40;;
20982;SDS011;10650;51.528;6.748;2023-06-26T11:17:39;5.68;;;2.10;;
20982;SDS011;10650;51.528;6.748;2023-06-26T11:20:08;3.33;;;2.20;;
20982;SDS011;10650;51.528;6.748;2023-06-26T11:22:37;7.03;;;2.40;;
20982;SDS011;10650;51.528;6.748;2023-06-26T11:25:07;3.67;;;2.47;;
20982;SDS011;10650;51.528;6.748;2023-06-26T11:27:45;3.85;;;2.22;;
20982;SDS011;10650;51.528;6.748;2023-06-26T11:30:23;4.65;;;2.10;;
20982;SDS011;10650;51.528;6.748;2023-06-26T11:32:52;5.72;;;2.13;;
20982;SDS011;10650;51.528;6.748;2023-06-26T11:35:23;3.00;;;1.95;;
20982;SDS011;10650;51.528;6.748;2023-06-26T11:37:56;5.30;;;2.20;;
20982;SDS011;10650;51.528;6.748;2023-06-26T11:40:30;3.80;;;1.88;;
20982;SDS011;10650;51.528;6.748;2023-06-26T11:42:59;5.60;;;2.38;;
20982;SDS011;10650;51.528;6.748;2023-06-26T11:45:29;3.13;;;1.85;;
20982;SDS011;10650;51.528;6.748;2023-06-26T11:47:59;5.65;;;2.00;;
20982;SDS011;10650;51.528;6.748;2023-06-26T11:50:27;3.95;;;2.00;;
20982;SDS011;10650;51.528;6.748;2023-06-26T11:52:56;3.20;;;1.73;;
20982;SDS011;10650;51.528;6.748;2023-06-26T11:55:25;4.20;;;1.85;;
20982;SDS011;10650;51.528;6.748;2023-06-26T11:57:53;5.72;;;2.10;;
20982;SDS011;10650;51.528;6.748;2023-06-26T12:00:23;4.28;;;1.60;;
20982;SDS011;10650;51.528;6.748;2023-06-26T12:02:52;4.85;;;1.70;;
20982;SDS011;10650;51.528;6.748;2023-06-26T12:05:20;4.57;;;1.70;;
20982;SDS011;10650;51.528;6.748;2023-06-26T12:07:48;3.92;;;1.63;;
20982;SDS011;10650;51.528;6.748;2023-06-26T12:10:18;3.75;;;1.70;;
20982;SDS011;10650;51.528;6.748;2023-06-26T12:12:46;3.03;;;1.75;;
20982;SDS011;10650;51.528;6.748;2023-06-26T12:15:15;2.70;;;1.60;;
20982;SDS011;10650;51.528;6.748;2023-06-26T12:17:43;2.85;;;1.90;;
20982;SDS011;10650;51.528;6.748;2023-06-26T12:20:19;3.55;;;1.55;;
20982;SDS011;10650;51.528;6.748;2023-06-26T12:22:48;6.20;;;1.98;;
20982;SDS011;10650;51.528;6.748;2023-06-26T12:25:23;5.75;;;2.00;;
20982;SDS011;10650;51.528;6.748;2023-06-26T12:27:51;4.18;;;1.65;;
20982;SDS011;10650;51.528;6.748;2023-06-26T12:30:19;3.58;;;1.60;;
20982;SDS011;10650;51.528;6.748;2023-06-26T12:32:47;2.67;;;1.65;;
20982;SDS011;10650;51.528;6.748;2023-06-26T12:35:15;3.65;;;1.70;;
20982;SDS011;10650;51.528;6.748;2023-06-26T12:37:44;1.90;;;1.70;;
20982;SDS011;10650;51.528;6.748;2023-06-26T12:40:16;4.32;;;1.80;;
20982;SDS011;10650;51.528;6.748;2023-06-26T12:42:45;3.50;;;1.63;;
20982;SDS011;10650;51.528;6.748;2023-06-26T12:45:13;3.85;;;1.50;;
20982;SDS011;10650;51.528;6.748;2023-06-26T12:48:06;5.47;;;1.60;;
20982;SDS011;10650;51.528;6.748;2023-06-26T12:50:37;2.03;;;1.58;;
20982;SDS011;10650;51.528;6.748;2023-06-26T12:53:07;2.13;;;1.52;;
20982;SDS011;10650;51.528;6.748;2023-06-26T12:55:35;3.88;;;1.70;;
20982;SDS011;10650;51.528;6.748;2023-06-26T12:58:03;4.07;;;1.80;;
20982;SDS011;10650;51.528;6.748;2023-06-26T13:00:31;4.13;;;1.50;;
20982;SDS011;10650;51.528;6.748;2023-06-26T13:03:00;3.40;;;1.80;;
20982;SDS011;10650;51.528;6.748;2023-06-26T13:05:28;2.88;;;1.92;;
20982;SDS011;10650;51.528;6.748;2023-06-26T13:07:55;4.78;;;1.85;;
20982;SDS011;10650;51.528;6.748;2023-06-26T13:10:26;5.57;;;2.08;;
20982;SDS011;10650;51.528;6.748;2023-06-26T13:12:55;4.53;;;2.22;;
20982;SDS011;10650;51.528;6.748;2023-06-26T13:15:23;5.82;;;2.53;;
20982;SDS011;10650;51.528;6.748;2023-06-26T13:17:50;5.38;;;2.00;;
20982;SDS011;10650;51.528;6.748;2023-06-26T13:20:18;7.57;;;3.33;;
20982;SDS011;10650;51.528;6.748;2023-06-26T13:22:46;5.10;;;2.88;;
20982;SDS011;10650;51.528;6.748;2023-06-26T13:25:16;4.93;;;2.17;;
20982;SDS011;10650;51.528;6.748;2023-06-26T13:27:45;7.65;;;3.72;;
20982;SDS011;10650;51.528;6.748;2023-06-26T13:30:13;6.13;;;3.25;;
20982;SDS011;10650;51.528;6.748;2023-06-26T13:32:43;9.30;;;2.10;;
20982;SDS011;10650;51.528;6.748;2023-06-26T13:35:12;3.67;;;1.60;;
20982;SDS011;10650;51.528;6.748;2023-06-26T13:37:43;2.65;;;1.75;;
20982;SDS011;10650;51.528;6.748;2023-06-26T13:40:11;3.60;;;1.90;;
20982;SDS011;10650;51.528;6.748;2023-06-26T13:42:42;5.87;;;1.90;;
20982;SDS011;10650;51.528;6.748;2023-06-26T13:45:12;2.70;;;1.73;;
20982;SDS011;10650;51.528;6.748;2023-06-26T13:47:56;4.97;;;1.70;;
20982;SDS011;10650;51.528;6.748;2023-06-26T13:50:24;4.13;;;1.73;;
20982;SDS011;10650;51.528;6.748;2023-06-26T13:53:03;4.35;;;2.40;;
20982;SDS011;10650;51.528;6.748;2023-06-26T13:55:32;2.05;;;1.55;;
20982;SDS011;10650;51.528;6.748;2023-06-26T13:58:01;5.57;;;3.00;;
20982;SDS011;10650;51.528;6.748;2023-06-26T14:00:32;3.95;;;1.70;;
20982;SDS011;10650;51.528;6.748;2023-06-26T14:03:00;1.90;;;1.60;;
20982;SDS011;10650;51.528;6.748;2023-06-26T14:05:29;4.32;;;1.90;;
20982;SDS011;10650;51.528;6.748;2023-06-26T14:08:02;5.72;;;2.00;;
20982;SDS011;10650;51.528;6.748;2023-06-26T14:10:31;4.47;;;1.60;;
20982;SDS011;10650;51.528;6.748;2023-06-26T14:13:00;2.35;;;1.50;;
20982;SDS011;10650;51.528;6.748;2023-06-26T14:15:29;4.40;;;1.80;;
20982;SDS011;10650;51.528;6.748;2023-06-26T14:18:00;4.47;;;1.88;;
20982;SDS011;10650;51.528;6.748;2023-06-26T14:20:29;3.67;;;1.50;;
20982;SDS011;10650;51.528;6.748;2023-06-26T14:22:58;3.92;;;1.48;;
20982;SDS011;10650;51.528;6.748;2023-06-26T14:25:26;4.55;;;1.70;;
20982;SDS011;10650;51.528;6.748;2023-06-26T14:27:55;4.32;;;1.50;;
20982;SDS011;10650;51.528;6.748;2023-06-26T14:30:23;3.72;;;1.70;;
20982;SDS011;10650;51.528;6.748;2023-06-26T14:32:52;3.88;;;1.70;;
20982;SDS011;10650;51.528;6.748;2023-06-26T14:35:20;2.90;;;1.50;;
20982;SDS011;10650;51.528;6.748;2023-06-26T14:37:48;3.50;;;1.70;;
20982;SDS011;10650;51.528;6.748;2023-06-26T14:40:16;2.70;;;1.60;;
20982;SDS011;10650;51.528;6.748;2023-06-26T14:42:44;3.67;;;1.55;;
20982;SDS011;10650;51.528;6.748;2023-06-26T14:45:13;3.35;;;1.70;;
20982;SDS011;10650;51.528;6.748;2023-06-26T14:47:41;4.70;;;1.92;;
20982;SDS011;10650;51.528;6.748;2023-06-26T14:50:10;3.78;;;1.92;;
20982;SDS011;10650;51.528;6.748;2023-06-26T14:52:38;4.55;;;1.90;;
20982;SDS011;10650;51.528;6.748;2023-06-26T14:55:06;5.15;;;2.10;;
20982;SDS011;10650;51.528;6.748;2023-06-26T14:57:34;2.88;;;1.77;;